Time,TemperatureF,DewpointF,PressureIn,WindDirection,WindDirectionDegrees,WindSpeedMPH,WindSpeedGustMPH,Humidity,HourlyPrecipIn,Conditions,Clouds,dailyrainin,SoftwareType,DateUTC
2013-01-07 00:05:00,18.3,15.4,30.31,SSW,206,0.0,6.0,88,0.00,,,0.00,meteohub,2013-01-07 06:05:00,
2013-01-07 00:10:00,18.1,15.3,30.31,SW,227,1.0,4.0,88,0.00,,,0.00,meteohub,2013-01-07 06:10:00,
2013-01-07 00:15:00,18.0,15.3,30.31,WSW,244,2.0,4.0,89,0.00,,,0.00,meteohub,2013-01-07 06:15:00,
2013-01-07 00:20:00,18.0,15.3,30.31,South,189,0.0,5.0,89,0.00,,,0.00,meteohub,2013-01-07 06:20:00,
2013-01-07 00:25:00,17.8,15.1,30.31,SW,235,0.0,6.0,89,0.00,,,0.00,meteohub,2013-01-07 06:25:00,
2013-01-07 00:30:00,18.0,15.3,30.31,WSW,242,0.0,6.0,89,0.00,,,0.00,meteohub,2013-01-07 06:30:00,
2013-01-07 00:35:00,18.0,15.3,30.31,SW,227,0.0,6.0,89,0.00,,,0.00,meteohub,2013-01-07 06:35:00,
2013-01-07 00:40:00,17.6,14.9,30.31,South,187,4.0,4.0,89,0.00,,,0.00,meteohub,2013-01-07 06:40:00,
2013-01-07 00:45:00,17.4,14.7,30.31,SSW,213,0.0,5.0,89,0.00,,,0.00,meteohub,2013-01-07 06:45:00,
2013-01-07 00:50:00,17.1,14.4,30.30,SW,227,0.0,5.0,89,0.00,,,0.00,meteohub,2013-01-07 06:50:00,
2013-01-07 00:55:00,16.9,14.2,30.30,SW,218,0.0,5.0,89,0.00,,,0.00,meteohub,2013-01-07 06:55:00,
2013-01-07 01:00:00,16.7,14.0,30.31,SW,223,0.0,3.0,89,0.00,,,0.00,meteohub,2013-01-07 07:00:00,
2013-01-07 01:05:00,16.5,13.8,30.31,SW,222,0.0,3.0,89,0.00,,,0.00,meteohub,2013-01-07 07:05:00,
2013-01-07 01:10:00,16.3,13.6,30.31,SW,222,0.0,1.0,89,0.00,,,0.00,meteohub,2013-01-07 07:10:00,
2013-01-07 01:15:00,16.3,13.6,30.31,SW,222,0.0,0.0,89,0.00,,,0.00,meteohub,2013-01-07 07:15:00,
2013-01-07 01:20:00,16.3,14.0,30.31,SW,222,0.0,0.0,90,0.00,,,0.00,meteohub,2013-01-07 07:20:00,
2013-01-07 01:25:00,16.2,13.8,30.31,SW,222,0.0,0.0,90,0.00,,,0.00,meteohub,2013-01-07 07:25:00,
2013-01-07 01:31:00,16.0,13.6,30.31,SW,222,0.0,0.0,90,0.00,,,0.00,meteohub,2013-01-07 07:31:00,
2013-01-07 01:36:00,16.0,13.6,30.31,SW,222,0.0,0.0,90,0.00,,,0.00,meteohub,2013-01-07 07:36:00,
2013-01-07 01:41:00,15.8,13.5,30.31,SW,222,0.0,0.0,90,0.00,,,0.00,meteohub,2013-01-07 07:41:00,
2013-01-07 01:46:00,15.6,13.3,30.31,SW,222,0.0,0.0,90,0.00,,,0.00,meteohub,2013-01-07 07:46:00,
2013-01-07 01:51:00,15.6,13.3,30.32,SW,222,0.0,0.0,90,0.00,,,0.00,meteohub,2013-01-07 07:51:00,
2013-01-07 01:56:00,15.4,13.1,30.32,SW,222,0.0,1.0,90,0.00,,,0.00,meteohub,2013-01-07 07:56:00,
2013-01-07 02:01:00,15.4,13.1,30.31,SW,222,0.0,1.0,90,0.00,,,0.00,meteohub,2013-01-07 08:01:00,
2013-01-07 02:06:00,15.3,12.9,30.31,SW,222,0.0,1.0,90,0.00,,,0.00,meteohub,2013-01-07 08:06:00,
2013-01-07 02:11:00,15.3,12.9,30.32,SW,222,0.0,0.0,90,0.00,,,0.00,meteohub,2013-01-07 08:11:00,
2013-01-07 02:17:00,15.1,12.7,30.32,SW,222,0.0,0.0,90,0.00,,,0.00,meteohub,2013-01-07 08:17:00,
2013-01-07 02:22:00,15.1,12.7,30.31,SW,222,0.0,0.0,90,0.00,,,0.00,meteohub,2013-01-07 08:22:00,
2013-01-07 02:27:00,15.1,12.7,30.31,SW,222,0.0,0.0,90,0.00,,,0.00,meteohub,2013-01-07 08:27:00,
2013-01-07 02:32:00,15.1,12.7,30.31,SW,222,0.0,0.0,90,0.00,,,0.00,meteohub,2013-01-07 08:32:00,
2013-01-07 02:37:00,15.1,12.4,30.31,SW,222,0.0,0.0,89,0.00,,,0.00,meteohub,2013-01-07 08:37:00,
2013-01-07 02:42:00,14.9,12.6,30.31,SW,222,0.0,0.0,90,0.00,,,0.00,meteohub,2013-01-07 08:42:00,
2013-01-07 02:47:00,15.1,12.7,30.31,SW,222,0.0,0.0,90,0.00,,,0.00,meteohub,2013-01-07 08:47:00,
2013-01-07 02:52:00,15.1,12.7,30.31,SW,222,0.0,0.0,90,0.00,,,0.00,meteohub,2013-01-07 08:52:00,
2013-01-07 02:57:00,15.1,12.4,30.31,SW,222,0.0,0.0,89,0.00,,,0.00,meteohub,2013-01-07 08:57:00,
2013-01-07 03:02:00,15.1,12.4,30.30,SW,222,0.0,0.0,89,0.00,,,0.00,meteohub,2013-01-07 09:02:00,
2013-01-07 03:07:00,15.1,12.7,30.31,SW,222,0.0,0.0,90,0.00,,,0.00,meteohub,2013-01-07 09:07:00,
2013-01-07 03:12:00,15.3,12.9,30.31,SW,222,0.0,0.0,90,0.00,,,0.00,meteohub,2013-01-07 09:12:00,
2013-01-07 03:17:00,15.4,13.1,30.30,SW,222,0.0,0.0,90,0.00,,,0.00,meteohub,2013-01-07 09:17:00,
2013-01-07 03:23:00,15.6,13.3,30.31,SW,222,0.0,0.0,90,0.00,,,0.00,meteohub,2013-01-07 09:23:00,
2013-01-07 03:28:00,16.0,13.3,30.30,SW,222,0.0,0.0,89,0.00,,,0.00,meteohub,2013-01-07 09:28:00,
2013-01-07 03:33:00,15.8,13.1,30.30,SW,222,0.0,0.0,89,0.00,,,0.00,meteohub,2013-01-07 09:33:00,
2013-01-07 03:38:00,15.8,13.1,30.30,SW,222,0.0,0.0,89,0.00,,,0.00,meteohub,2013-01-07 09:38:00,
2013-01-07 03:43:00,15.6,12.9,30.30,SW,222,0.0,0.0,89,0.00,,,0.00,meteohub,2013-01-07 09:43:00,
2013-01-07 03:48:00,15.6,12.9,30.30,SW,222,0.0,0.0,89,0.00,,,0.00,meteohub,2013-01-07 09:48:00,
2013-01-07 03:53:00,15.6,12.9,30.30,SW,222,0.0,0.0,89,0.00,,,0.00,meteohub,2013-01-07 09:53:00,
2013-01-07 03:58:00,16.0,13.3,30.30,SW,222,0.0,0.0,89,0.00,,,0.00,meteohub,2013-01-07 09:58:00,
2013-01-07 04:03:00,16.0,13.3,30.29,SW,222,0.0,0.0,89,0.00,,,0.00,meteohub,2013-01-07 10:03:00,
2013-01-07 04:08:00,16.2,13.5,30.29,SW,222,0.0,0.0,89,0.00,,,0.00,meteohub,2013-01-07 10:08:00,
2013-01-07 04:13:00,16.3,13.6,30.30,SW,222,0.0,0.0,89,0.00,,,0.00,meteohub,2013-01-07 10:13:00,
2013-01-07 04:18:00,16.5,13.8,30.29,SW,217,0.0,0.0,89,0.00,,,0.00,meteohub,2013-01-07 10:18:00,
2013-01-07 04:23:00,17.1,14.4,30.29,WSW,238,0.0,2.0,89,0.00,,,0.00,meteohub,2013-01-07 10:23:00,
2013-01-07 04:29:00,17.4,14.5,30.29,SSE,167,0.0,4.0,88,0.00,,,0.00,meteohub,2013-01-07 10:29:00,
2013-01-07 04:34:00,18.0,14.7,30.29,SSW,204,0.0,6.0,87,0.00,,,0.00,meteohub,2013-01-07 10:34:00,
2013-01-07 04:39:00,18.3,15.1,30.29,SSW,194,2.0,7.0,87,0.00,,,0.00,meteohub,2013-01-07 10:39:00,
2013-01-07 04:44:00,18.7,15.3,30.29,SSW,194,0.0,7.0,86,0.00,,,0.00,meteohub,2013-01-07 10:44:00,
2013-01-07 04:49:00,19.0,15.6,30.30,SW,231,0.0,7.0,86,0.00,,,0.00,meteohub,2013-01-07 10:49:00,
2013-01-07 04:54:00,19.2,15.8,30.29,South,179,0.0,6.0,86,0.00,,,0.00,meteohub,2013-01-07 10:54:00,
2013-01-07 04:59:00,19.2,15.4,30.29,South,169,0.0,2.0,85,0.00,,,0.00,meteohub,2013-01-07 10:59:00,
2013-01-07 05:04:00,19.4,16.0,30.29,SSW,207,0.0,4.0,86,0.00,,,0.00,meteohub,2013-01-07 11:04:00,
2013-01-07 05:09:00,19.6,15.8,30.28,SW,215,0.0,4.0,85,0.00,,,0.00,meteohub,2013-01-07 11:09:00,
2013-01-07 05:14:00,19.8,16.0,30.28,SSW,199,2.0,5.0,85,0.00,,,0.00,meteohub,2013-01-07 11:14:00,
2013-01-07 05:19:00,19.9,16.2,30.28,SSE,150,0.0,5.0,85,0.00,,,0.00,meteohub,2013-01-07 11:19:00,
2013-01-07 05:24:00,19.9,16.0,30.28,SSE,165,2.0,6.0,84,0.00,,,0.00,meteohub,2013-01-07 11:24:00,
2013-01-07 05:30:00,20.1,16.0,30.28,SW,229,2.0,6.0,84,0.00,,,0.00,meteohub,2013-01-07 11:30:00,
2013-01-07 05:35:00,20.3,16.2,30.29,South,181,0.0,6.0,84,0.00,,,0.00,meteohub,2013-01-07 11:35:00,
2013-01-07 05:40:00,20.5,16.2,30.29,SSW,200,1.0,6.0,83,0.00,,,0.00,meteohub,2013-01-07 11:40:00,
2013-01-07 05:45:00,20.7,16.3,30.29,SSW,199,2.0,4.0,83,0.00,,,0.00,meteohub,2013-01-07 11:45:00,
2013-01-07 05:50:00,20.7,16.3,30.29,SSW,205,0.0,4.0,83,0.00,,,0.00,meteohub,2013-01-07 11:50:00,
2013-01-07 05:55:00,20.7,16.3,30.29,South,186,1.0,4.0,83,0.00,,,0.00,meteohub,2013-01-07 11:55:00,
2013-01-07 06:00:00,20.7,16.3,30.28,South,175,0.0,4.0,83,0.00,,,0.00,meteohub,2013-01-07 12:00:00,
2013-01-07 06:05:00,20.8,16.5,30.28,South,188,0.0,4.0,83,0.00,,,0.00,meteohub,2013-01-07 12:05:00,
2013-01-07 06:10:00,20.8,16.5,30.28,SSW,193,0.0,5.0,83,0.00,,,0.00,meteohub,2013-01-07 12:10:00,
2013-01-07 06:15:00,20.8,16.5,30.28,SE,130,0.0,5.0,83,0.00,,,0.00,meteohub,2013-01-07 12:15:00,
2013-01-07 06:20:00,21.0,16.7,30.27,South,174,1.0,5.0,83,0.00,,,0.00,meteohub,2013-01-07 12:20:00,
2013-01-07 06:25:00,21.0,16.7,30.27,SSW,197,1.0,5.0,83,0.00,,,0.00,meteohub,2013-01-07 12:25:00,
2013-01-07 06:30:00,21.4,17.1,30.27,South,177,1.0,5.0,83,0.00,,,0.00,meteohub,2013-01-07 12:30:00,
2013-01-07 06:36:00,21.6,17.2,30.27,SSE,157,1.0,5.0,83,0.00,,,0.00,meteohub,2013-01-07 12:36:00,
2013-01-07 06:41:00,21.9,17.6,30.27,SSE,153,3.0,5.0,83,0.00,,,0.00,meteohub,2013-01-07 12:41:00,
2013-01-07 06:46:00,22.3,17.6,30.26,SE,144,2.0,5.0,82,0.00,,,0.00,meteohub,2013-01-07 12:46:00,
2013-01-07 06:51:00,22.5,17.8,30.26,SSE,155,1.0,5.0,82,0.00,,,0.00,meteohub,2013-01-07 12:51:00,
2013-01-07 06:56:00,22.5,17.8,30.27,ESE,115,0.0,5.0,82,0.00,,,0.00,meteohub,2013-01-07 12:56:00,
2013-01-07 07:01:00,21.9,17.1,30.26,ESE,115,1.0,4.0,81,0.00,,,0.00,meteohub,2013-01-07 13:01:00,
2013-01-07 07:06:00,21.2,16.3,30.26,ESE,108,1.0,7.0,81,0.00,,,0.00,meteohub,2013-01-07 13:06:00,
2013-01-07 07:11:00,20.8,16.0,30.26,ESE,106,1.0,7.0,81,0.00,,,0.00,meteohub,2013-01-07 13:11:00,
2013-01-07 07:16:00,20.1,15.4,30.26,ESE,106,2.0,7.0,82,0.00,,,0.00,meteohub,2013-01-07 13:16:00,
2013-01-07 07:21:00,19.8,15.4,30.26,ESE,107,1.0,5.0,83,0.00,,,0.00,meteohub,2013-01-07 13:21:00,
2013-01-07 07:26:00,19.6,15.6,30.26,ESE,107,0.0,2.0,84,0.00,,,0.00,meteohub,2013-01-07 13:26:00,
2013-01-07 07:31:00,19.4,15.6,30.26,ESE,111,0.0,2.0,85,0.00,,,0.00,meteohub,2013-01-07 13:31:00,
2013-01-07 07:36:00,19.2,15.4,30.26,ESE,106,2.0,2.0,85,0.00,,,0.00,meteohub,2013-01-07 13:36:00,
2013-01-07 07:41:00,19.4,15.6,30.25,ESE,106,0.0,3.0,85,0.00,,,0.00,meteohub,2013-01-07 13:41:00,
2013-01-07 07:47:00,19.4,15.6,30.25,ESE,108,1.0,3.0,85,0.00,,,0.00,meteohub,2013-01-07 13:47:00,
2013-01-07 07:52:00,19.4,15.6,30.25,ESE,107,2.0,3.0,85,0.00,,,0.00,meteohub,2013-01-07 13:52:00,
2013-01-07 07:57:00,19.4,15.6,30.24,ESE,105,2.0,4.0,85,0.00,,,0.00,meteohub,2013-01-07 13:57:00,
2013-01-07 08:02:00,19.6,15.8,30.24,ESE,113,3.0,4.0,85,0.00,,,0.00,meteohub,2013-01-07 14:02:00,
2013-01-07 08:07:00,19.9,16.2,30.24,ESE,113,4.0,5.0,85,0.00,,,0.00,meteohub,2013-01-07 14:07:00,
2013-01-07 08:12:00,20.3,16.5,30.24,ESE,113,1.0,5.0,85,0.00,,,0.00,meteohub,2013-01-07 14:12:00,
2013-01-07 08:17:00,20.8,17.1,30.24,ESE,113,0.0,5.0,85,0.00,,,0.00,meteohub,2013-01-07 14:17:00,
2013-01-07 08:22:00,21.6,17.8,30.23,ESE,113,2.0,4.0,85,0.00,,,0.00,meteohub,2013-01-07 14:22:00,
2013-01-07 08:27:00,22.1,18.0,30.23,SSE,155,1.0,3.0,84,0.00,,,0.00,meteohub,2013-01-07 14:27:00,
2013-01-07 08:32:00,22.8,19.0,30.23,SE,137,0.0,4.0,85,0.00,,,0.00,meteohub,2013-01-07 14:32:00,
2013-01-07 08:37:00,23.4,19.2,30.23,SE,137,0.0,8.0,84,0.00,,,0.00,meteohub,2013-01-07 14:37:00,
2013-01-07 08:42:00,24.1,19.8,30.23,SE,142,0.0,8.0,83,0.00,,,0.00,meteohub,2013-01-07 14:42:00,
2013-01-07 08:47:00,24.6,19.9,30.24,SE,145,1.0,4.0,82,0.00,,,0.00,meteohub,2013-01-07 14:47:00,
2013-01-07 08:52:00,25.5,20.5,30.24,SSE,148,4.0,7.0,81,0.00,,,0.00,meteohub,2013-01-07 14:52:00,
2013-01-07 08:57:00,26.4,20.8,30.24,SSE,154,4.0,7.0,79,0.00,,,0.00,meteohub,2013-01-07 14:57:00,
2013-01-07 09:02:00,27.1,21.2,30.24,SSE,155,2.0,7.0,78,0.00,,,0.00,meteohub,2013-01-07 15:02:00,
2013-01-07 09:07:00,28.0,21.4,30.24,SSE,163,1.0,9.0,76,0.00,,,0.00,meteohub,2013-01-07 15:07:00,
2013-01-07 09:12:00,28.6,21.4,30.24,SSE,167,5.0,9.0,74,0.00,,,0.00,meteohub,2013-01-07 15:12:00,
2013-01-07 09:17:00,29.1,21.6,30.23,South,178,5.0,9.0,73,0.00,,,0.00,meteohub,2013-01-07 15:17:00,
2013-01-07 09:22:00,29.7,21.4,30.23,SSE,167,4.0,10.0,71,0.00,,,0.00,meteohub,2013-01-07 15:22:00,
2013-01-07 09:27:00,30.0,21.0,30.23,WSW,248,7.0,21.0,69,0.00,,,0.00,meteohub,2013-01-07 15:27:00,
2013-01-07 09:32:00,30.2,21.6,30.24,South,188,8.0,21.0,70,0.00,,,0.00,meteohub,2013-01-07 15:32:00,
2013-01-07 09:37:00,30.2,21.6,30.24,SSE,159,4.0,21.0,70,0.00,,,0.00,meteohub,2013-01-07 15:37:00,
2013-01-07 09:42:00,30.2,21.2,30.24,SSE,160,4.0,15.0,69,0.00,,,0.00,meteohub,2013-01-07 15:42:00,
2013-01-07 09:47:00,30.4,21.4,30.24,SW,219,6.0,15.0,69,0.00,,,0.00,meteohub,2013-01-07 15:47:00,
2013-01-07 09:52:00,30.4,21.7,30.24,SSW,192,1.0,20.0,70,0.00,,,0.00,meteohub,2013-01-07 15:52:00,
2013-01-07 09:57:00,30.6,21.6,30.24,ENE,72,0.0,20.0,69,0.00,,,0.00,meteohub,2013-01-07 15:57:00,
2013-01-07 10:02:00,30.6,21.6,30.24,West,277,5.0,20.0,69,0.00,,,0.00,meteohub,2013-01-07 16:02:00,
2013-01-07 10:07:00,30.7,21.7,30.24,SSE,167,0.0,11.0,69,0.00,,,0.00,meteohub,2013-01-07 16:07:00,
2013-01-07 10:12:00,30.7,21.7,30.24,SSW,198,1.0,11.0,69,0.00,,,0.00,meteohub,2013-01-07 16:12:00,
2013-01-07 10:17:00,30.9,22.3,30.23,SE,142,0.0,11.0,70,0.00,,,0.00,meteohub,2013-01-07 16:17:00,
2013-01-07 10:22:00,31.1,22.5,30.23,SW,216,3.0,11.0,70,0.00,,,0.00,meteohub,2013-01-07 16:22:00,
2013-01-07 10:27:00,30.9,22.3,30.23,South,188,4.0,11.0,70,0.00,,,0.00,meteohub,2013-01-07 16:27:00,
2013-01-07 10:32:00,31.1,22.8,30.22,SSW,211,2.0,14.0,71,0.00,,,0.00,meteohub,2013-01-07 16:32:00,
2013-01-07 10:37:00,31.3,23.0,30.22,South,187,4.0,14.0,71,0.00,,,0.00,meteohub,2013-01-07 16:37:00,
2013-01-07 10:42:00,31.3,23.0,30.21,South,191,5.0,11.0,71,0.00,,,0.00,meteohub,2013-01-07 16:42:00,
2013-01-07 10:47:00,31.5,22.8,30.20,South,182,15.0,16.0,70,0.00,,,0.00,meteohub,2013-01-07 16:47:00,
2013-01-07 10:52:00,31.5,23.2,30.20,SSW,192,5.0,20.0,71,0.00,,,0.00,meteohub,2013-01-07 16:52:00,
2013-01-07 10:57:00,31.6,23.4,30.20,SSW,200,1.0,20.0,71,0.00,,,0.00,meteohub,2013-01-07 16:57:00,
2013-01-07 11:02:00,31.8,23.2,30.20,South,175,7.0,20.0,70,0.00,,,0.00,meteohub,2013-01-07 17:02:00,
2013-01-07 11:07:00,32.4,23.7,30.19,SSW,199,4.0,13.0,70,0.00,,,0.00,meteohub,2013-01-07 17:07:00,
2013-01-07 11:12:00,32.5,23.5,30.19,WSW,243,1.0,13.0,69,0.00,,,0.00,meteohub,2013-01-07 17:12:00,
2013-01-07 11:17:00,32.7,23.7,30.18,SW,236,4.0,15.0,69,0.00,,,0.00,meteohub,2013-01-07 17:17:00,
2013-01-07 11:22:00,33.1,24.1,30.19,WSW,256,2.0,15.0,69,0.00,,,0.00,meteohub,2013-01-07 17:22:00,
2013-01-07 11:27:00,33.3,23.9,30.18,SSW,201,4.0,14.0,68,0.00,,,0.00,meteohub,2013-01-07 17:27:00,
2013-01-07 11:32:00,33.6,23.9,30.17,NW,314,1.0,14.0,67,0.00,,,0.00,meteohub,2013-01-07 17:32:00,
2013-01-07 11:37:00,33.6,23.9,30.17,SE,140,5.0,20.0,67,0.00,,,0.00,meteohub,2013-01-07 17:37:00,
2013-01-07 11:42:00,34.0,24.3,30.16,South,173,4.0,20.0,67,0.00,,,0.00,meteohub,2013-01-07 17:42:00,
2013-01-07 11:47:00,34.2,24.6,30.16,SW,214,7.0,19.0,68,0.00,,,0.00,meteohub,2013-01-07 17:47:00,
2013-01-07 11:52:00,34.5,24.6,30.15,SE,146,6.0,19.0,67,0.00,,,0.00,meteohub,2013-01-07 17:52:00,
2013-01-07 11:57:00,34.9,24.6,30.14,South,177,5.0,13.0,66,0.00,,,0.00,meteohub,2013-01-07 17:57:00,
2013-01-07 12:02:00,35.2,25.3,30.14,SSW,194,1.0,13.0,67,0.00,,,0.00,meteohub,2013-01-07 18:02:00,
2013-01-07 12:07:00,35.4,25.5,30.14,South,175,4.0,14.0,67,0.00,,,0.00,meteohub,2013-01-07 18:07:00,
2013-01-07 12:12:00,35.8,25.9,30.13,SE,142,1.0,14.0,67,0.00,,,0.00,meteohub,2013-01-07 18:12:00,
2013-01-07 12:17:00,36.0,25.7,30.13,SE,135,0.0,14.0,66,0.00,,,0.00,meteohub,2013-01-07 18:17:00,
2013-01-07 12:22:00,36.1,25.9,30.13,SSE,166,2.0,11.0,66,0.00,,,0.00,meteohub,2013-01-07 18:22:00,
2013-01-07 12:27:00,36.7,26.1,30.12,SE,142,3.0,13.0,65,0.00,,,0.00,meteohub,2013-01-07 18:27:00,
2013-01-07 12:32:00,36.7,25.7,30.13,SW,224,2.0,13.0,64,0.00,,,0.00,meteohub,2013-01-07 18:32:00,
2013-01-07 12:37:00,36.7,25.7,30.13,SW,231,2.0,15.0,64,0.00,,,0.00,meteohub,2013-01-07 18:37:00,
2013-01-07 12:42:00,36.9,25.9,30.13,SSW,206,3.0,15.0,64,0.00,,,0.00,meteohub,2013-01-07 18:42:00,
2013-01-07 12:47:00,36.9,26.2,30.13,SW,218,5.0,15.0,65,0.00,,,0.00,meteohub,2013-01-07 18:47:00,
2013-01-07 12:52:00,36.9,26.2,30.12,SE,128,6.0,11.0,65,0.00,,,0.00,meteohub,2013-01-07 18:52:00,
2013-01-07 12:57:00,36.9,26.2,30.12,SW,215,6.0,14.0,65,0.00,,,0.00,meteohub,2013-01-07 18:57:00,
2013-01-07 13:02:00,37.0,26.8,30.12,West,281,3.0,18.0,66,0.00,,,0.00,meteohub,2013-01-07 19:02:00,
2013-01-07 13:07:00,37.0,26.4,30.12,SE,124,1.0,18.0,65,0.00,,,0.00,meteohub,2013-01-07 19:07:00,
2013-01-07 13:12:00,37.2,27.0,30.11,South,174,11.0,14.0,66,0.00,,,0.00,meteohub,2013-01-07 19:12:00,
2013-01-07 13:17:00,37.6,27.0,30.11,SSE,157,6.0,15.0,65,0.00,,,0.00,meteohub,2013-01-07 19:17:00,
2013-01-07 13:22:00,37.8,27.1,30.10,South,176,6.0,15.0,65,0.00,,,0.00,meteohub,2013-01-07 19:22:00,
2013-01-07 13:27:00,37.8,27.1,30.09,SSW,194,6.0,16.0,65,0.00,,,0.00,meteohub,2013-01-07 19:27:00,
2013-01-07 13:32:00,37.8,27.1,30.09,South,186,5.0,16.0,65,0.00,,,0.00,meteohub,2013-01-07 19:32:00,
2013-01-07 13:37:00,37.8,26.6,30.09,SE,138,4.0,14.0,64,0.00,,,0.00,meteohub,2013-01-07 19:37:00,
2013-01-07 13:42:00,37.6,27.0,30.09,SSE,157,9.0,14.0,65,0.00,,,0.00,meteohub,2013-01-07 19:42:00,
2013-01-07 13:47:00,37.8,26.6,30.09,South,170,1.0,12.0,64,0.00,,,0.00,meteohub,2013-01-07 19:47:00,
2013-01-07 13:52:00,37.9,26.8,30.09,South,173,12.0,15.0,64,0.00,,,0.00,meteohub,2013-01-07 19:52:00,
2013-01-07 13:57:00,38.1,27.3,30.09,SSW,192,5.0,15.0,65,0.00,,,0.00,meteohub,2013-01-07 19:57:00,
2013-01-07 14:02:00,38.1,27.0,30.09,SW,232,4.0,14.0,64,0.00,,,0.00,meteohub,2013-01-07 20:02:00,
2013-01-07 14:07:00,38.5,27.0,30.09,South,178,3.0,13.0,63,0.00,,,0.00,meteohub,2013-01-07 20:07:00,
2013-01-07 14:12:00,38.7,27.1,30.09,SSW,195,8.0,19.0,63,0.00,,,0.00,meteohub,2013-01-07 20:12:00,
2013-01-07 14:17:00,38.7,27.1,30.08,South,186,5.0,19.0,63,0.00,,,0.00,meteohub,2013-01-07 20:17:00,
2013-01-07 14:22:00,38.7,27.5,30.08,SW,219,2.0,19.0,64,0.00,,,0.00,meteohub,2013-01-07 20:22:00,
2013-01-07 14:23:00,38.7,27.5,30.08,SE,135,8.0,19.0,64,0.00,,,0.00,meteohub,2013-01-07 20:23:00,
2013-01-07 14:28:00,38.8,27.3,30.09,SSW,198,0.0,19.0,63,0.00,,,0.00,meteohub,2013-01-07 20:28:00,
2013-01-07 14:33:00,38.8,27.3,30.09,South,184,6.0,13.0,63,0.00,,,0.00,meteohub,2013-01-07 20:33:00,
2013-01-07 14:38:00,38.8,27.3,30.09,SW,232,0.0,14.0,63,0.00,,,0.00,meteohub,2013-01-07 20:38:00,
2013-01-07 14:43:00,38.8,27.3,30.09,WSW,255,6.0,14.0,63,0.00,,,0.00,meteohub,2013-01-07 20:43:00,
2013-01-07 14:48:00,38.8,27.3,30.09,SSE,156,1.0,14.0,63,0.00,,,0.00,meteohub,2013-01-07 20:48:00,
2013-01-07 14:53:00,38.8,27.7,30.09,NW,313,1.0,12.0,64,0.00,,,0.00,meteohub,2013-01-07 20:53:00,
2013-01-07 14:58:00,38.7,27.9,30.09,WSW,241,2.0,14.0,65,0.00,,,0.00,meteohub,2013-01-07 20:58:00,
2013-01-07 15:03:00,38.7,27.5,30.09,SSW,202,3.0,14.0,64,0.00,,,0.00,meteohub,2013-01-07 21:03:00,
2013-01-07 15:08:00,38.7,27.5,30.09,SW,236,0.0,11.0,64,0.00,,,0.00,meteohub,2013-01-07 21:08:00,
2013-01-07 15:13:00,38.5,27.7,30.09,SSW,202,1.0,14.0,65,0.00,,,0.00,meteohub,2013-01-07 21:13:00,
2013-01-07 15:18:00,38.5,28.0,30.09,South,181,2.0,14.0,66,0.00,,,0.00,meteohub,2013-01-07 21:18:00,
2013-01-07 15:23:00,38.3,27.9,30.09,SSE,157,3.0,19.0,66,0.00,,,0.00,meteohub,2013-01-07 21:23:00,
2013-01-07 15:29:00,38.1,28.2,30.09,South,182,3.0,19.0,67,0.00,,,0.00,meteohub,2013-01-07 21:29:00,
2013-01-07 15:34:00,38.1,28.2,30.09,South,183,1.0,19.0,67,0.00,,,0.00,meteohub,2013-01-07 21:34:00,
2013-01-07 15:39:00,38.1,28.2,30.09,SSW,194,0.0,10.0,67,0.00,,,0.00,meteohub,2013-01-07 21:39:00,
2013-01-07 15:44:00,38.1,28.2,30.08,South,182,3.0,10.0,67,0.00,,,0.00,meteohub,2013-01-07 21:44:00,
2013-01-07 15:49:00,37.9,28.4,30.08,SSE,167,1.0,10.0,68,0.00,,,0.00,meteohub,2013-01-07 21:49:00,
2013-01-07 15:54:00,37.8,28.2,30.08,SSE,157,1.0,12.0,68,0.00,,,0.00,meteohub,2013-01-07 21:54:00,
2013-01-07 15:59:00,37.6,28.4,30.07,SSW,197,7.0,12.0,69,0.00,,,0.00,meteohub,2013-01-07 21:59:00,
2013-01-07 16:04:00,37.6,28.4,30.07,SSW,196,5.0,11.0,69,0.00,,,0.00,meteohub,2013-01-07 22:04:00,
2013-01-07 16:09:00,37.4,28.2,30.07,South,190,7.0,12.0,69,0.00,,,0.00,meteohub,2013-01-07 22:09:00,
2013-01-07 16:14:00,37.4,28.2,30.07,SSW,213,2.0,12.0,69,0.00,,,0.00,meteohub,2013-01-07 22:14:00,
2013-01-07 16:19:00,37.0,28.2,30.09,South,182,5.0,12.0,70,0.00,,,0.00,meteohub,2013-01-07 22:19:00,
2013-01-07 16:24:00,37.0,28.2,30.09,SSE,154,3.0,11.0,70,0.00,,,0.00,meteohub,2013-01-07 22:24:00,
2013-01-07 16:29:00,36.9,28.0,30.09,SSE,160,0.0,9.0,70,0.00,,,0.00,meteohub,2013-01-07 22:29:00,
2013-01-07 16:34:00,36.9,28.0,30.09,SSE,160,0.0,9.0,70,0.00,,,0.00,meteohub,2013-01-07 22:34:00,
2013-01-07 16:39:00,36.7,28.2,30.09,SSE,167,0.0,9.0,71,0.00,,,0.00,meteohub,2013-01-07 22:39:00,
2013-01-07 16:45:00,36.5,28.0,30.09,SSW,201,4.0,9.0,71,0.00,,,0.00,meteohub,2013-01-07 22:45:00,
2013-01-07 16:50:00,36.7,28.2,30.09,South,181,2.0,8.0,71,0.00,,,0.00,meteohub,2013-01-07 22:50:00,
2013-01-07 16:55:00,36.3,28.2,30.09,SSW,211,1.0,8.0,72,0.00,,,0.00,meteohub,2013-01-07 22:55:00,
2013-01-07 17:00:00,36.3,27.9,30.09,SW,220,0.0,11.0,71,0.00,,,0.00,meteohub,2013-01-07 23:00:00,
2013-01-07 17:05:00,36.1,28.0,30.08,South,191,3.0,10.0,72,0.00,,,0.00,meteohub,2013-01-07 23:05:00,
2013-01-07 17:10:00,36.1,28.0,30.09,SSE,155,4.0,11.0,72,0.00,,,0.00,meteohub,2013-01-07 23:10:00,
2013-01-07 17:15:00,36.1,28.0,30.09,SSE,167,6.0,11.0,72,0.00,,,0.00,meteohub,2013-01-07 23:15:00,
2013-01-07 17:20:00,36.1,28.0,30.09,South,181,9.0,12.0,72,0.00,,,0.00,meteohub,2013-01-07 23:20:00,
2013-01-07 17:25:00,36.1,28.0,30.09,South,184,1.0,13.0,72,0.00,,,0.00,meteohub,2013-01-07 23:25:00,
2013-01-07 17:30:00,36.0,27.9,30.09,South,178,0.0,13.0,72,0.00,,,0.00,meteohub,2013-01-07 23:30:00,
2013-01-07 17:35:00,35.8,28.0,30.09,SE,141,0.0,13.0,73,0.00,,,0.00,meteohub,2013-01-07 23:35:00,
2013-01-07 17:40:00,35.4,27.7,30.09,SSE,162,2.0,12.0,73,0.00,,,0.00,meteohub,2013-01-07 23:40:00,
2013-01-07 17:45:00,35.4,28.0,30.09,South,178,1.0,10.0,74,0.00,,,0.00,meteohub,2013-01-07 23:45:00,
2013-01-07 17:50:00,35.4,28.0,30.09,SSE,155,4.0,12.0,74,0.00,,,0.00,meteohub,2013-01-07 23:50:00,
2013-01-07 17:55:00,35.2,28.0,30.09,SW,227,0.0,12.0,75,0.00,,,0.00,meteohub,2013-01-07 23:55:00,
2013-01-07 18:00:00,35.1,27.9,30.09,SSW,211,3.0,12.0,75,0.00,,,0.00,meteohub,2013-01-08 00:00:00,
2013-01-07 18:05:00,34.9,28.0,30.09,SW,215,2.0,9.0,76,0.00,,,0.00,meteohub,2013-01-08 00:05:00,
2013-01-07 18:10:00,34.9,28.0,30.09,South,182,2.0,9.0,76,0.00,,,0.00,meteohub,2013-01-08 00:10:00,
2013-01-07 18:16:00,34.7,27.9,30.09,WSW,239,0.0,12.0,76,0.00,,,0.00,meteohub,2013-01-08 00:16:00,
2013-01-07 18:21:00,34.5,28.0,30.09,South,181,1.0,12.0,77,0.00,,,0.00,meteohub,2013-01-08 00:21:00,
2013-01-07 18:26:00,34.5,28.0,30.09,SSE,167,1.0,9.0,77,0.00,,,0.00,meteohub,2013-01-08 00:26:00,
2013-01-07 18:31:00,34.3,27.9,30.09,SW,217,4.0,11.0,77,0.00,,,0.00,meteohub,2013-01-08 00:31:00,
2013-01-07 18:36:00,34.3,28.2,30.09,SE,138,1.0,11.0,78,0.00,,,0.00,meteohub,2013-01-08 00:36:00,
2013-01-07 18:41:00,34.2,28.0,30.09,SSW,196,1.0,11.0,78,0.00,,,0.00,meteohub,2013-01-08 00:41:00,
2013-01-07 18:46:00,34.2,28.0,30.09,SSW,194,1.0,11.0,78,0.00,,,0.00,meteohub,2013-01-08 00:46:00,
2013-01-07 18:51:00,34.2,28.0,30.09,SSW,210,2.0,11.0,78,0.00,,,0.00,meteohub,2013-01-08 00:51:00,
2013-01-07 18:56:00,34.2,28.0,30.09,West,263,0.0,11.0,78,0.00,,,0.00,meteohub,2013-01-08 00:56:00,
2013-01-07 19:01:00,34.2,28.0,30.09,SSE,158,2.0,10.0,78,0.00,,,0.00,meteohub,2013-01-08 01:01:00,
2013-01-07 19:06:00,34.0,28.2,30.08,SSW,201,0.0,9.0,79,0.00,,,0.00,meteohub,2013-01-08 01:06:00,
2013-01-07 19:11:00,34.0,27.9,30.08,South,182,1.0,7.0,78,0.00,,,0.00,meteohub,2013-01-08 01:11:00,
2013-01-07 19:16:00,34.0,27.9,30.08,SSE,167,2.0,10.0,78,0.00,,,0.00,meteohub,2013-01-08 01:16:00,
2013-01-07 19:21:00,34.0,27.9,30.08,South,175,0.0,10.0,78,0.00,,,0.00,meteohub,2013-01-08 01:21:00,
2013-01-07 19:26:00,34.0,28.2,30.07,SSE,161,2.0,10.0,79,0.00,,,0.00,meteohub,2013-01-08 01:26:00,
2013-01-07 19:32:00,33.6,27.9,30.08,SSW,202,2.0,8.0,79,0.00,,,0.00,meteohub,2013-01-08 01:32:00,
2013-01-07 19:37:00,33.6,28.0,30.07,WSW,247,1.0,7.0,80,0.00,,,0.00,meteohub,2013-01-08 01:37:00,
2013-01-07 19:42:00,33.4,27.9,30.08,SW,234,1.0,8.0,80,0.00,,,0.00,meteohub,2013-01-08 01:42:00,
2013-01-07 19:47:00,33.4,27.9,30.08,SW,221,1.0,8.0,80,0.00,,,0.00,meteohub,2013-01-08 01:47:00,
2013-01-07 19:52:00,33.4,27.9,30.08,SSW,203,1.0,8.0,80,0.00,,,0.00,meteohub,2013-01-08 01:52:00,
2013-01-07 19:57:00,33.4,27.9,30.08,SSE,161,4.0,8.0,80,0.00,,,0.00,meteohub,2013-01-08 01:57:00,
2013-01-07 20:02:00,33.4,27.9,30.08,ESE,119,2.0,10.0,80,0.00,,,0.00,meteohub,2013-01-08 02:02:00,
2013-01-07 20:07:00,33.3,27.7,30.08,SSE,161,2.0,10.0,80,0.00,,,0.00,meteohub,2013-01-08 02:07:00,
2013-01-07 20:12:00,33.3,27.7,30.08,SW,222,0.0,9.0,80,0.00,,,0.00,meteohub,2013-01-08 02:12:00,
2013-01-07 20:17:00,33.1,27.9,30.08,West,259,0.0,8.0,81,0.00,,,0.00,meteohub,2013-01-08 02:17:00,
2013-01-07 20:22:00,33.1,27.9,30.08,South,173,2.0,8.0,81,0.00,,,0.00,meteohub,2013-01-08 02:22:00,
2013-01-07 20:27:00,33.1,27.9,30.09,South,184,7.0,9.0,81,0.00,,,0.00,meteohub,2013-01-08 02:27:00,
2013-01-07 20:32:00,33.1,27.9,30.08,SW,235,1.0,9.0,81,0.00,,,0.00,meteohub,2013-01-08 02:32:00,
2013-01-07 20:37:00,33.3,27.7,30.08,SSW,198,0.0,9.0,80,0.00,,,0.00,meteohub,2013-01-08 02:37:00,
2013-01-07 20:42:00,33.1,27.5,30.09,SW,233,0.0,11.0,80,0.00,,,0.00,meteohub,2013-01-08 02:42:00,
2013-01-07 20:47:00,33.1,27.9,30.09,SSE,165,1.0,11.0,81,0.00,,,0.00,meteohub,2013-01-08 02:47:00,
2013-01-07 20:52:00,33.1,27.9,30.09,SE,130,0.0,11.0,81,0.00,,,0.00,meteohub,2013-01-08 02:52:00,
2013-01-07 20:57:00,32.9,27.7,30.09,South,190,2.0,7.0,81,0.00,,,0.00,meteohub,2013-01-08 02:57:00,
2013-01-07 21:02:00,32.9,27.7,30.09,SSW,205,1.0,7.0,81,0.00,,,0.00,meteohub,2013-01-08 03:02:00,
2013-01-07 21:07:00,32.7,27.5,30.09,SSW,213,2.0,6.0,81,0.00,,,0.00,meteohub,2013-01-08 03:07:00,
2013-01-07 21:12:00,32.7,27.5,30.09,SW,216,2.0,7.0,81,0.00,,,0.00,meteohub,2013-01-08 03:12:00,
2013-01-07 21:17:00,32.5,27.7,30.09,South,183,0.0,7.0,82,0.00,,,0.00,meteohub,2013-01-08 03:17:00,
2013-01-07 21:22:00,32.5,27.7,30.09,SSW,205,3.0,11.0,82,0.00,,,0.00,meteohub,2013-01-08 03:22:00,
2013-01-07 21:27:00,32.5,27.7,30.09,SW,223,1.0,11.0,82,0.00,,,0.00,meteohub,2013-01-08 03:27:00,
2013-01-07 21:32:00,32.4,27.5,30.09,South,174,0.0,11.0,82,0.00,,,0.00,meteohub,2013-01-08 03:32:00,
2013-01-07 21:37:00,32.4,27.5,30.09,WSW,241,0.0,9.0,82,0.00,,,0.00,meteohub,2013-01-08 03:37:00,
2013-01-07 21:42:00,32.4,27.9,30.09,South,182,0.0,8.0,83,0.00,,,0.00,meteohub,2013-01-08 03:42:00,
2013-01-07 21:47:00,32.2,27.7,30.09,South,186,0.0,8.0,83,0.00,,,0.00,meteohub,2013-01-08 03:47:00,
2013-01-07 21:52:00,32.2,27.7,30.09,SW,227,1.0,8.0,83,0.00,,,0.00,meteohub,2013-01-08 03:52:00,
2013-01-07 21:57:00,32.2,27.7,30.09,South,185,5.0,10.0,83,0.00,,,0.00,meteohub,2013-01-08 03:57:00,
2013-01-07 22:02:00,32.2,27.7,30.09,SW,220,4.0,10.0,83,0.00,,,0.00,meteohub,2013-01-08 04:02:00,
2013-01-07 22:07:00,32.2,27.7,30.09,South,186,0.0,8.0,83,0.00,,,0.00,meteohub,2013-01-08 04:07:00,
2013-01-07 22:12:00,31.8,27.3,30.09,South,173,0.0,9.0,83,0.00,,,0.00,meteohub,2013-01-08 04:12:00,
2013-01-07 22:18:00,31.8,27.5,30.09,WSW,241,0.0,9.0,84,0.00,,,0.00,meteohub,2013-01-08 04:18:00,
2013-01-07 22:23:00,31.6,27.3,30.09,WSW,242,0.0,7.0,84,0.00,,,0.00,meteohub,2013-01-08 04:23:00,
2013-01-07 22:28:00,31.6,27.3,30.09,SSW,199,0.0,7.0,84,0.00,,,0.00,meteohub,2013-01-08 04:28:00,
2013-01-07 22:33:00,31.6,27.3,30.09,SW,214,1.0,7.0,84,0.00,,,0.00,meteohub,2013-01-08 04:33:00,
2013-01-07 22:38:00,31.6,27.7,30.09,South,184,0.0,7.0,85,0.00,,,0.00,meteohub,2013-01-08 04:38:00,
2013-01-07 22:43:00,31.6,27.7,30.09,SSW,192,5.0,8.0,85,0.00,,,0.00,meteohub,2013-01-08 04:43:00,
2013-01-07 22:48:00,31.6,27.7,30.09,SW,224,1.0,8.0,85,0.00,,,0.00,meteohub,2013-01-08 04:48:00,
2013-01-07 22:53:00,31.6,27.7,30.09,SW,231,0.0,8.0,85,0.00,,,0.00,meteohub,2013-01-08 04:53:00,
2013-01-07 22:58:00,31.6,27.7,30.09,South,184,0.0,7.0,85,0.00,,,0.00,meteohub,2013-01-08 04:58:00,
2013-01-07 23:00:00,31.6,27.7,30.09,South,182,0.0,7.0,85,0.00,,,0.00,meteohub,2013-01-08 05:00:00,
2013-01-07 23:01:00,31.6,27.7,30.09,South,182,0.0,7.0,85,0.00,,,0.00,meteohub,2013-01-08 05:01:00,
2013-01-07 23:02:00,31.6,27.7,30.09,South,182,0.0,7.0,85,0.00,,,0.00,meteohub,2013-01-08 05:02:00,
2013-01-07 23:07:00,31.6,27.7,30.09,SSW,196,1.0,7.0,85,0.00,,,0.00,meteohub,2013-01-08 05:07:00,
2013-01-07 23:12:00,31.6,27.7,30.09,South,186,1.0,7.0,85,0.00,,,0.00,meteohub,2013-01-08 05:12:00,
2013-01-07 23:17:00,31.8,27.9,30.09,South,183,0.0,6.0,85,0.00,,,0.00,meteohub,2013-01-08 05:17:00,
2013-01-07 23:22:00,31.8,27.9,30.09,SSE,158,2.0,6.0,85,0.00,,,0.00,meteohub,2013-01-08 05:22:00,
2013-01-07 23:27:00,31.8,27.9,30.09,SW,215,0.0,6.0,85,0.00,,,0.00,meteohub,2013-01-08 05:27:00,
2013-01-07 23:32:00,31.8,27.9,30.09,WSW,251,0.0,7.0,85,0.00,,,0.00,meteohub,2013-01-08 05:32:00,
2013-01-07 23:37:00,32.0,28.0,30.09,SSW,209,0.0,7.0,85,0.00,,,0.00,meteohub,2013-01-08 05:37:00,
2013-01-07 23:42:00,32.2,28.2,30.09,SSW,203,0.0,7.0,85,0.00,,,0.00,meteohub,2013-01-08 05:42:00,
2013-01-07 23:47:00,32.2,28.2,30.09,SSW,193,5.0,7.0,85,0.00,,,0.00,meteohub,2013-01-08 05:47:00,
2013-01-07 23:52:00,32.2,28.2,30.09,South,185,0.0,8.0,85,0.00,,,0.00,meteohub,2013-01-08 05:52:00,
2013-01-07 23:57:00,32.4,28.4,30.09,SW,229,0.0,8.0,85,0.00,,,0.00,meteohub,2013-01-08 05:57:00,